Huvudsida
METAR-TAF:

METAR-TAF

Flygplatser :

Monbetsu, Japan

latitud: 44-15N, longitud: 143-32E, höjd: 6 m

Aktuellt väderrapport

Denna rapport gjordes för 2 timmar och 53 minuter sedan, klockan 07:00 UTC
Vind 12 kt från nord/nordväst
Temperatur 11°C
Fuktighet 100%
Tryck 1003 hPa
Sikt 10 km eller mer
Få moln på en höjd av 500 ft
Brutna moln på en höjd av 700 ft
Brutna moln på en höjd av 1000 ft

METAR: RJEB 250700Z 33012KT 9999 FEW005 BKN007 BKN010 11/11 Q1003

Tid: 18:53 (09:53 UTC)


TAF: saknas

Aktuella väderrapporter och prognoser från 4000 flygplatser (METAR- och TAF-rapporter).

De tillgängliga stationerna syns som gula och röda prickar på kartan.

För musen över prickarna för att se namnen på stationerna.

Klicka sedan för att få väderrapporter och prognoser.

För att ändra kartan: Klicka på de gröna knapparna med ett svart kors på för att zooma in; den gröna knappen med ett streck på för att zooma ut; eller på de gröna pilarna för angränsande kartor.


METAR-TAF: